Sunday, October 22, 2017, 7:30 PM CDT
Back to Local

KPPF, Parsons Tri-city Airport

Location: Cherryvale, KS, United States Lat: 37.333
Local Time: 7:30 PM CDT ( 0:30 GMT) Lon: -95.5
Time Zone: US/Central Elev: 898 ft

Show me the last for .
Show Decoded

2017-10-22 18:52 METAR KPPF 222352Z AUTO 05003KT 10SM CLR 13/06 A3012 RMK AO2 SLP198 60000
                 T01280061 10211 20128 55001 =
2017-10-22 17:52 METAR KPPF 222252Z AUTO 36005KT 10SM CLR 19/02 A3012 RMK AO2 RAE2154B15E26
                 SLP196 P0000 T01890022 =
2017-10-22 16:52 METAR KPPF 222152Z AUTO 36006KT 10SM -RA CLR 20/01 A3012 RMK AO2 RAB13 SLP196
                 P0000 T02000006 =
2017-10-22 15:52 METAR KPPF 222052Z AUTO 35013G18KT 10SM CLR 21/02 A3012 RMK AO2 RAB21E38 SLP196
                 P0000 60000 T02060017 56014 =
2017-10-22 14:52 METAR KPPF 221952Z AUTO 33011KT 10SM CLR 21/03 A3013 RMK AO2 RAB11E30 SLP198
                 P0000 T02060033 =
2017-10-22 13:52 METAR KPPF 221852Z AUTO 31011G18KT 10SM CLR 19/06 A3014 RMK AO2 RAB1756E05
                 SLP204 P0000 T01940056 =
2017-10-22 12:52 METAR KPPF 221752Z AUTO 33012KT 10SM CLR 18/07 A3016 RMK AO2 RAB08E40 SLP210
                 P0000 60000 T01780067 10178 20094 50001 =
2017-10-22 11:52 METAR KPPF 221652Z AUTO 33013KT 10SM CLR 16/08 A3018 RMK AO2 SLP217 T01560078 =
2017-10-22 10:52 METAR KPPF 221552Z AUTO 34009KT 10SM CLR 13/08 A3017 RMK AO2 RAE06B40E45 SLP215
                 P0000 T01330078 =
2017-10-22 09:52 METAR KPPF 221452Z AUTO 33008KT 10SM -RA CLR 12/08 A3016 RMK AO2 RAB51 SLP211
                 P0000 60000 T01170078 53024 =
2017-10-22 08:52 METAR KPPF 221352Z AUTO 33008KT 10SM CLR 11/08 A3014 RMK AO2 SLP201 T01060083 =
2017-10-22 07:52 METAR KPPF 221252Z AUTO 34007KT 10SM CLR 09/08 A3011 RMK AO2 SLP191 T00940083 =
2017-10-22 06:52 METAR KPPF 221152Z AUTO 33009KT 10SM CLR 11/09 A3009 RMK AO2 SLP183 60027 70170
                 T01060089 10128 20106 51014 =
2017-10-22 05:52 METAR KPPF 221052Z AUTO 33006KT 10SM CLR 11/10 A3008 RMK AO2 SLP179 T01110100 =
2017-10-22 04:52 METAR KPPF 220952Z AUTO 34004KT 10SM SCT055 BKN090 12/10 A3006 RMK AO2 SLP175
                 T01170100 =
2017-10-22 04:26 METAR KPPF 220926Z AUTO 33004KT 10SM FEW015 BKN065 OVC085 12/10 A3007 RMK AO2
                 T01170100 =
2017-10-22 04:06 METAR KPPF 220906Z AUTO 34007KT 10SM BKN015 BKN060 12/10 A3005 RMK AO2 T01170100
                 =
2017-10-22 03:52 METAR KPPF 220852Z AUTO 33007KT 10SM OVC013 12/10 A3004 RMK AO2 RAE0753 SLP167
                 P0000 60027 T01170100 51027 =
2017-10-22 03:02 METAR KPPF 220802Z AUTO 31006KT 10SM BKN011 OVC110 12/11 A3001 RMK AO2 LTG DSNT
                 E RAE0753 PRESRR P0000 T01170106 =
2017-10-22 02:52 METAR KPPF 220752Z AUTO 33006KT 10SM -RA SCT011 BKN100 12/11 A2999 RMK AO2 LTG
                 DSNT E TSE08 PRESRR SLP151 P0007 T01170106 =
2017-10-22 02:28 METAR KPPF 220728Z AUTO 03006KT 10SM RA FEW025 SCT036 OVC090 12/11 A2998 RMK AO2
                 LTG DSNT NE-S TSE08 P0006 T01170106 =
2017-10-22 02:09 METAR KPPF 220709Z AUTO 36008KT 7SM RA SCT014 BKN025 OVC037 12/11 A3001 RMK AO2
                 LTG DSNT ALQDS TSE08 P0004 T01170106 =
2017-10-22 01:52 METAR KPPF 220652Z AUTO 34005KT 6SM +TSRA BR BKN013 OVC025 12/11 A3003 RMK AO2
                 LTG DSNT ALQDS TSB0555E10B32E47B49 SLP163 P0020 T01170106 =
2017-10-22 01:43 METAR KPPF 220643Z AUTO 33008KT 6SM +TSRA BR BKN013 BKN025 OVC050 12/11 A3002
                 RMK AO2 LTG DSNT ALQDS TSB0555E10B32 P0018 T01170106 =
2017-10-22 01:36 METAR KPPF 220636Z AUTO 34010G16KT 6SM +TSRA BR SCT011 BKN016 OVC080 12/11 A3001
                 RMK AO2 LTG DSNT ALQDS TSB0555E10B32 P0016 T01170106 =
2017-10-22 01:10 METAR KPPF 220610Z AUTO 35009G20KT 5SM VCTS +RA BR BKN010 BKN015 OVC031 12/11
                 A2999 RMK AO2 LTG DSNT ALQDS TSB0555E10 PRESRR P0007 T01220111 =
2017-10-22 01:01 METAR KPPF 220601Z AUTO 34016G24KT 5SM +TSRA BR BKN009 BKN015 OVC031 12/11 A2996
                 RMK AO2 LTG DSNT ALQDS TSB0555 P0004 T01220111 =
2017-10-22 00:52 METAR KPPF 220552Z AUTO 34014KT 4SM VCTS +RA BR BKN009 BKN015 OVC029 13/12 A2996
                 RMK AO2 LTG DSNT ALQDS TSB0454E09B13E28 SLP140 P0027 60143 T01280117 10239 20128
                 402670128 50020 =
2017-10-22 00:34 METAR KPPF 220534Z AUTO 36011G17KT 4SM VCTS +RA BR BKN007 OVC015 13/12 A2997 RMK
                 AO2 LTG DSNT ALQDS TSB0454E09B13E28 P0018 T01280117 =
2017-10-22 00:24 METAR KPPF 220524Z AUTO 35010KT 4SM +TSRA BR BKN007 BKN015 OVC070 13/12 A2997
                 RMK AO2 LTG DSNT ALQDS TSB0454E09B13 P0013 T01280122 =
2017-10-22 00:17 METAR KPPF 220517Z AUTO 34009KT 5SM +TSRA BR SCT007 BKN013 OVC085 13/12 A2996
                 RMK AO2 LTG DSNT ALQDS TSB0454E09B13 P0010 T01330122 =
2017-10-22 00:13 METAR KPPF 220513Z AUTO 34010G18KT 5SM +TSRA BR SCT011 BKN015 OVC085 13/12 A2996
                 RMK AO2 LTG DSNT ALQDS TSB0454E09B13 P0008 T01330122 =
2017-10-22 00:11 METAR KPPF 220511Z AUTO 34011G18KT 6SM +RA BR BKN011 BKN028 OVC085 13/12 A2995
                 RMK AO2 LTG DSNT ALQDS TSB0454E09 P0007 T01330122 =
2017-10-22 00:09 METAR KPPF 220509Z AUTO 35014KT 6SM VCTS +RA BR BKN011 BKN027 OVC085 13/12 A2995
                 RMK AO2 LTG DSNT ALQDS TSB0454E09 P0006 T01330122 =
2017-10-22 00:00 METAR KPPF 220500Z AUTO 35014KT 6SM TSRA BR BKN009 BKN028 OVC080 13/12 A2997 RMK
                 AO2 LTG DSNT ALQDS TSB0454 P0002 T01330122 =
2017-10-21 23:52 METAR KPPF 220452Z AUTO 35012G20KT 5SM +RA BR BKN007 BKN012 OVC048 13/12 A2997
                 RMK AO2 LTG DSNT ALQDS TSE04 PRESRR SLP142 P0018 T01330122 =
2017-10-21 23:32 METAR KPPF 220432Z AUTO 35013G19KT 5SM +RA BR BKN009 BKN055 OVC075 14/13 A2993
                 RMK AO2 LTG DSNT ALQDS TSE04 P0010 T01390133 =
2017-10-21 23:19 METAR KPPF 220419Z AUTO 35007KT 6SM VCTS RA BR BKN009 OVC090 14/13 A2995 RMK AO2
                 LTG DSNT ALQDS TSE04 P0007 T01440133 =
2017-10-21 23:10 METAR KPPF 220410Z AUTO 35006KT 5SM VCTS +RA BR FEW010 FEW065 OVC090 14/13 A2996
                 RMK AO2 LTG DSNT ALQDS TSE04 PRESRR P0005 T01440133 =
2017-10-21 22:52 METAR KPPF 220352Z AUTO 36008KT 6SM TSRA BR FEW010 OVC090 14/13 A2994 RMK AO2
                 LTG DSNT ALQDS TSE19B49 SLP132 P0017 T01440133 =
2017-10-21 22:39 METAR KPPF 220339Z AUTO 01009KT 7SM VCTS RA BKN010 BKN038 OVC095 14/13 A2992 RMK
                 AO2 LTG DSNT ALQDS TSE19 P0015 T01440133 =
2017-10-21 22:32 METAR KPPF 220332Z AUTO 36007KT 5SM VCTS RA BR BKN008 BKN048 OVC075 14/14 A2993
                 RMK AO2 LTG DSNT ALQDS TSE19 P0014 T01440139 =
2017-10-21 22:19 METAR KPPF 220319Z AUTO 35009KT 4SM VCTS +RA BR SCT008 BKN045 OVC075 15/14 A2995
                 RMK AO2 LTG DSNT ALQDS TSE19 P0011 T01500139 =
2017-10-21 21:58 METAR KPPF 220258Z AUTO 01005KT 3SM +TSRA BR BKN046 OVC070 14/14 A2992 RMK AO2
                 LTG DSNT ALQDS P0003 T01440139 =
2017-10-21 21:52 METAR KPPF 220252Z AUTO 02006KT 1 3/4SM +TSRA BR BKN041 OVC070 14/14 A2990 RMK
                 AO2 PK WND 31049/0159 WSHFT 0148 LTG DSNT ALQDS RAB0158 TSB04 SLP120 P0081 60081
                 T01440139 53030 =
2017-10-21 21:30 METAR KPPF 220230Z AUTO 36009G17KT 2 1/2SM +TSRA BR BKN030 OVC070 15/14 A2989
                 RMK AO2 PK WND 31049/0159 WSHFT 0148 VIS 1 3/4V4 LTG DSNT ALQDS RAB0158 TSB04
                 P0053 T01500139 =
2017-10-21 21:24 METAR KPPF 220224Z AUTO 33011G23KT 1 1/2SM +TSRA BR FEW017 BKN023 OVC037 15/14
                 A2989 RMK AO2 PK WND 31049/0159 WSHFT 0148 LTG DSNT ALQDS RAB0158 TSB04 P0047
                 T01500139 =
2017-10-21 21:13 METAR KPPF 220213Z AUTO 32017G37KT 1SM +TSRA BR BKN019 BKN028 OVC047 15/14 A2994
                 RMK AO2 PK WND 31049/0159 WSHFT 0148 LTG DSNT ALQDS RAB0158 TSB04 P0026
                 T01500139 =
2017-10-21 21:11 METAR KPPF 220211Z AUTO 32022G37KT 1 3/4SM +TSRA BR SCT021 BKN028 OVC047 16/13
                 A2994 RMK AO2 PK WND 31049/0159 WSHFT 0148 LTG DSNT ALQDS RAB0158 TSB04 PRESRR
                 P0014 T01560133 =
2017-10-21 21:04 METAR KPPF 220204Z AUTO 34026G49KT 10SM -TSRA SCT021 BKN028 OVC060 17/13 A2991
                 RMK AO2 PK WND 31049/0159 WSHFT 0148 LTG DSNT SW-N RAB0158 TSB04 P0000 T01670133
                 =
2017-10-21 21:00 METAR KPPF 220200Z AUTO 31035G49KT 10SM VCTS -RA SCT021 BKN028 OVC060 18/13
                 A2992 RMK AO2 PK WND 31049/0159 LTG DSNT SW-N RAB0158 PRESRR P0000 T01780133 =
2017-10-21 20:52 METAR KPPF 220152Z AUTO 32016G28KT 10SM FEW021 SCT048 OVC065 21/16 A2986 RMK AO2
                 PK WND 31028/0150 LTG DSNT SW-N SLP105 T02110156 =
2017-10-21 19:52 METAR KPPF 220052Z AUTO 15007G15KT 10SM OVC070 24/18 A2980 RMK AO2 SLP085
                 T02390178 =

Support USWX by starting your Amazon purchase here.